createdAt,value
2023-12-22T00:00:02.504Z,53.08
2023-12-22T00:02:30.364Z,53.73
2023-12-22T00:04:58.228Z,52.57
2023-12-22T00:07:26.117Z,53.34
2023-12-22T00:09:53.960Z,53.08
2023-12-22T00:12:23.159Z,53.90
2023-12-22T00:14:51.193Z,53.18
2023-12-22T00:17:19.019Z,53.71
2023-12-22T00:19:46.969Z,52.36
2023-12-22T00:22:14.997Z,53.12
2023-12-22T00:24:42.791Z,53.20
2023-12-22T00:27:10.676Z,52.33
2023-12-22T00:29:39.889Z,52.07
2023-12-22T00:32:10.764Z,52.24
2023-12-22T00:34:38.763Z,51.97
2023-12-22T00:37:06.642Z,52.86
2023-12-22T00:39:34.594Z,52.24
2023-12-22T00:42:02.503Z,53.29
2023-12-22T00:44:30.713Z,53.05
2023-12-22T00:46:59.946Z,53.45
2023-12-22T00:49:27.858Z,53.33
2023-12-22T00:51:55.698Z,53.29
2023-12-22T00:54:23.539Z,53.01
2023-12-22T00:56:51.735Z,53.38
2023-12-22T00:59:20.235Z,53.25
2023-12-22T01:01:48.263Z,52.94
2023-12-22T01:04:17.527Z,53.11
2023-12-22T01:06:45.476Z,53.54
2023-12-22T01:09:13.428Z,52.18
2023-12-22T01:11:41.222Z,51.97
2023-12-22T01:14:09.100Z,51.82
2023-12-22T01:16:37.014Z,52.76
2023-12-22T01:19:04.942Z,52.86
2023-12-22T01:21:34.193Z,52.40
2023-12-22T01:24:02.083Z,51.59
2023-12-22T01:26:29.979Z,51.72
2023-12-22T01:28:57.892Z,51.35
2023-12-22T01:31:25.869Z,52.36
2023-12-22T01:33:53.767Z,52.28
2023-12-22T01:36:21.594Z,50.62
2023-12-22T01:38:50.790Z,52.28
2023-12-22T01:41:18.632Z,53.65
2023-12-22T01:43:46.467Z,52.69
2023-12-22T01:46:14.335Z,53.87
2023-12-22T01:48:42.268Z,52.70
2023-12-22T01:51:10.121Z,51.81
2023-12-22T01:53:39.972Z,52.11
2023-12-22T01:56:09.684Z,54.05
2023-12-22T01:58:37.542Z,52.21
2023-12-22T02:01:05.637Z,53.70
2023-12-22T02:03:33.558Z,53.47
2023-12-22T02:06:01.597Z,52.10
2023-12-22T02:08:29.439Z,53.29
2023-12-22T02:10:57.283Z,53.43
2023-12-22T02:13:26.560Z,50.49
2023-12-22T02:15:58.051Z,51.61
2023-12-22T02:18:28.268Z,51.62
2023-12-22T02:20:56.085Z,52.94
2023-12-22T02:23:25.269Z,52.75
2023-12-22T02:25:53.857Z,52.70
2023-12-22T02:28:21.817Z,53.74
2023-12-22T02:30:52.239Z,51.94
2023-12-22T02:33:20.095Z,51.95
2023-12-22T02:35:47.939Z,50.77
2023-12-22T02:38:15.774Z,52.90
2023-12-22T02:40:44.997Z,52.17
2023-12-22T02:43:11.929Z,49.69
2023-12-22T02:45:39.763Z,50.37
2023-12-22T02:48:08.305Z,50.24
2023-12-22T02:50:36.342Z,49.43
2023-12-22T02:53:04.368Z,49.62
2023-12-22T02:55:32.245Z,51.06
2023-12-22T02:58:01.424Z,51.72
2023-12-22T03:00:29.261Z,51.87
2023-12-22T03:02:57.117Z,51.37
2023-12-22T03:05:24.976Z,50.48
2023-12-22T03:07:53.200Z,50.40
2023-12-22T03:10:21.160Z,51.19
2023-12-22T03:12:49.004Z,52.73
2023-12-22T03:15:18.196Z,50.99
2023-12-22T03:17:46.138Z,51.32
2023-12-22T03:20:14.136Z,51.26
2023-12-22T03:22:41.989Z,52.05
2023-12-22T03:25:10.087Z,52.83
2023-12-22T03:27:38.029Z,51.76
2023-12-22T03:30:06.841Z,51.19
2023-12-22T03:32:36.109Z,50.99
2023-12-22T03:35:04.122Z,52.53
2023-12-22T03:37:32.039Z,51.87
2023-12-22T03:39:59.923Z,52.96
2023-12-22T03:42:27.722Z,52.22
2023-12-22T03:44:55.581Z,51.16
2023-12-22T03:47:23.554Z,51.72
2023-12-22T03:49:52.774Z,52.93
2023-12-22T03:52:20.743Z,53.13
2023-12-22T03:54:48.609Z,52.23
2023-12-22T03:57:16.403Z,51.41
2023-12-22T03:59:44.696Z,52.81
2023-12-22T04:02:12.693Z,52.22
2023-12-22T04:04:40.635Z,51.61
2023-12-22T04:07:09.918Z,52.33
2023-12-22T04:09:39.056Z,50.99
2023-12-22T04:12:07.627Z,50.86
2023-12-22T04:14:35.633Z,52.26
2023-12-22T04:17:03.543Z,52.07
2023-12-22T04:19:31.462Z,52.06
2023-12-22T04:21:59.344Z,52.19
2023-12-22T04:24:28.523Z,51.60
2023-12-22T04:26:56.332Z,51.57
2023-12-22T04:29:24.137Z,51.06
2023-12-22T04:31:51.970Z,51.31
2023-12-22T04:34:19.806Z,52.52
2023-12-22T04:36:48.113Z,52.67
2023-12-22T04:39:15.956Z,51.45
2023-12-22T04:41:45.172Z,52.33
2023-12-22T04:44:12.970Z,52.24
2023-12-22T04:46:40.814Z,51.20
2023-12-22T04:49:08.903Z,52.61
2023-12-22T04:51:36.825Z,51.69
2023-12-22T04:54:04.835Z,51.52
2023-12-22T04:56:33.378Z,52.02
2023-12-22T04:59:02.631Z,52.85
2023-12-22T05:01:30.560Z,53.47
2023-12-22T05:03:58.459Z,52.41
2023-12-22T05:06:26.285Z,52.21
2023-12-22T05:08:54.088Z,52.05
2023-12-22T05:11:22.026Z,52.20
2023-12-22T05:13:49.966Z,50.64
2023-12-22T05:16:19.334Z,50.78
2023-12-22T05:18:47.177Z,51.94
2023-12-22T05:21:16.102Z,51.30
2023-12-22T05:23:44.147Z,50.39
2023-12-22T05:26:11.967Z,50.92
2023-12-22T05:28:39.885Z,52.03
2023-12-22T05:31:07.708Z,52.54
2023-12-22T05:33:36.876Z,51.51
2023-12-22T05:36:05.194Z,50.38
2023-12-22T05:38:33.019Z,51.62
2023-12-22T05:41:00.899Z,52.01
2023-12-22T05:43:28.757Z,52.09
2023-12-22T05:45:56.549Z,51.05
2023-12-22T05:48:24.442Z,52.41
2023-12-22T05:50:53.642Z,51.18
2023-12-22T05:53:21.443Z,51.62
2023-12-22T05:55:49.931Z,51.23
2023-12-22T05:58:17.782Z,51.28
2023-12-22T06:00:45.611Z,51.18
2023-12-22T06:03:13.587Z,51.47
2023-12-22T06:05:41.540Z,50.31
2023-12-22T06:08:11.428Z,50.63
2023-12-22T06:10:39.358Z,51.41
2023-12-22T06:13:07.598Z,50.64
2023-12-22T06:15:35.463Z,50.79
2023-12-22T06:18:03.374Z,50.96
2023-12-22T06:20:31.230Z,50.39
2023-12-22T06:22:59.148Z,51.76
2023-12-22T06:25:28.557Z,50.80
2023-12-22T06:27:56.365Z,50.50
2023-12-22T06:30:25.540Z,50.91
2023-12-22T06:32:53.597Z,51.62
2023-12-22T06:35:24.778Z,52.26
2023-12-22T06:37:53.064Z,50.34
2023-12-22T06:40:21.378Z,50.38
2023-12-22T06:42:50.572Z,49.63
2023-12-22T06:45:18.375Z,51.21
2023-12-22T06:47:46.289Z,51.15
2023-12-22T06:50:14.404Z,51.66
2023-12-22T06:52:42.388Z,51.68
2023-12-22T06:55:10.904Z,51.75
2023-12-22T06:57:40.315Z,50.73
2023-12-22T07:00:11.486Z,50.66
2023-12-22T07:02:39.498Z,50.29
2023-12-22T07:05:32.467Z,50.83
2023-12-22T07:08:00.305Z,50.07
2023-12-22T07:10:28.136Z,50.43
2023-12-22T07:12:55.969Z,49.54
2023-12-22T07:15:25.126Z,49.64
2023-12-22T07:17:53.568Z,50.60
2023-12-22T07:20:22.075Z,50.68
2023-12-22T07:22:49.982Z,50.12
2023-12-22T07:25:20.215Z,50.96
2023-12-22T07:27:48.909Z,51.10
2023-12-22T07:30:18.142Z,49.91
2023-12-22T07:32:49.850Z,52.42
2023-12-22T07:35:18.955Z,51.47
2023-12-22T07:37:47.013Z,52.72
2023-12-22T07:40:17.122Z,51.70
2023-12-22T07:42:46.002Z,50.55
2023-12-22T07:45:13.823Z,50.01
2023-12-22T07:47:41.703Z,51.06
2023-12-22T07:50:11.408Z,50.63
2023-12-22T07:52:41.127Z,50.46
2023-12-22T07:55:11.641Z,49.92
2023-12-22T07:57:39.706Z,50.05
2023-12-22T08:00:10.232Z,50.59
2023-12-22T08:02:38.171Z,50.51
2023-12-22T08:05:06.340Z,50.46
2023-12-22T08:07:35.575Z,49.65
2023-12-22T08:10:04.048Z,51.17
2023-12-22T08:12:33.308Z,49.37
2023-12-22T08:15:01.319Z,49.77
2023-12-22T08:17:29.504Z,50.17
2023-12-22T08:22:28.412Z,50.00
2023-12-22T08:25:00.773Z,50.78
2023-12-22T08:27:28.678Z,49.96
2023-12-22T08:29:56.499Z,50.44
2023-12-22T08:32:24.373Z,50.37
2023-12-22T08:34:52.282Z,49.74
2023-12-22T08:37:20.324Z,50.95
2023-12-22T08:39:48.314Z,50.59
2023-12-22T08:42:17.540Z,50.28
2023-12-22T08:44:45.433Z,50.57
2023-12-22T08:47:13.285Z,51.22
2023-12-22T08:49:41.149Z,50.48
2023-12-22T08:52:08.996Z,51.09
2023-12-22T08:54:37.102Z,50.37
2023-12-22T08:57:05.214Z,50.61
2023-12-22T08:59:34.387Z,51.19
2023-12-22T09:02:02.291Z,50.98
2023-12-22T09:04:30.286Z,50.23
2023-12-22T09:06:58.131Z,50.88
2023-12-22T09:09:26.354Z,50.60
2023-12-22T09:11:54.583Z,51.30
2023-12-22T09:14:22.845Z,50.06
2023-12-22T09:16:52.123Z,50.87
2023-12-22T09:19:20.403Z,50.71
2023-12-22T09:21:48.249Z,50.52
2023-12-22T09:24:17.672Z,50.79
2023-12-22T09:26:45.510Z,50.09
2023-12-22T09:29:13.484Z,49.89
2023-12-22T09:31:42.388Z,50.65
2023-12-22T09:34:11.733Z,50.02
2023-12-22T09:36:39.932Z,50.22
2023-12-22T09:39:07.754Z,50.09
2023-12-22T09:41:35.561Z,50.38
2023-12-22T09:44:03.438Z,51.08
2023-12-22T09:46:31.310Z,50.54
2023-12-22T09:48:59.182Z,51.50
2023-12-22T09:51:28.396Z,51.05
2023-12-22T09:53:56.442Z,50.53
2023-12-22T09:56:24.899Z,51.38
2023-12-22T09:58:52.820Z,51.58
2023-12-22T10:01:23.275Z,50.87
2023-12-22T10:03:51.214Z,51.37
2023-12-22T10:06:19.191Z,50.68
2023-12-22T10:08:48.588Z,51.63
2023-12-22T10:11:16.426Z,50.47
2023-12-22T10:13:44.315Z,50.08
2023-12-22T10:16:12.189Z,49.75
2023-12-22T10:18:40.066Z,50.02
2023-12-22T10:21:08.068Z,51.11
2023-12-22T10:23:35.866Z,51.27
2023-12-22T10:26:05.429Z,50.64
2023-12-22T10:28:33.318Z,52.01
2023-12-22T10:31:07.238Z,50.61
2023-12-22T10:33:35.216Z,50.46
2023-12-22T10:36:03.120Z,51.12
2023-12-22T10:38:34.515Z,51.66
2023-12-22T10:41:04.416Z,50.49
2023-12-22T10:43:32.464Z,50.94
2023-12-22T10:46:00.301Z,49.81
2023-12-22T10:48:28.187Z,51.08
2023-12-22T10:50:56.153Z,50.85
2023-12-22T10:53:25.114Z,50.94
2023-12-22T10:55:53.450Z,51.25
2023-12-22T10:58:23.010Z,51.58
2023-12-22T11:00:50.902Z,51.56
2023-12-22T11:03:19.790Z,51.44
2023-12-22T11:05:48.942Z,51.22
2023-12-22T11:08:16.851Z,50.51
2023-12-22T11:10:45.189Z,51.00
2023-12-22T11:13:13.490Z,50.85
2023-12-22T11:15:42.757Z,51.10
2023-12-22T11:18:11.303Z,50.22
2023-12-22T11:20:39.201Z,50.95
2023-12-22T11:23:07.038Z,50.59
2023-12-22T11:25:34.947Z,50.20
2023-12-22T11:28:02.984Z,50.69
2023-12-22T11:30:30.805Z,50.72
2023-12-22T11:33:00.112Z,50.50
2023-12-22T11:35:32.595Z,51.24
2023-12-22T11:38:02.420Z,51.27
2023-12-22T11:40:29.323Z,50.70
2023-12-22T11:42:57.230Z,51.74
2023-12-22T11:45:25.417Z,51.19
2023-12-22T11:47:54.081Z,50.97
2023-12-22T11:50:32.859Z,50.08
2023-12-22T11:53:22.351Z,50.82
2023-12-22T11:56:03.952Z,50.85
2023-12-22T11:58:41.993Z,50.73
2023-12-22T12:01:10.824Z,51.45
2023-12-22T12:03:40.473Z,51.08
2023-12-22T12:06:18.678Z,51.06
2023-12-22T12:08:46.569Z,51.29
2023-12-22T12:11:14.869Z,51.01
2023-12-22T12:13:46.030Z,51.81
2023-12-22T12:16:13.909Z,50.89
2023-12-22T12:18:42.018Z,51.00
2023-12-22T12:21:10.501Z,51.40
2023-12-22T12:23:39.875Z,52.36
2023-12-22T12:26:08.485Z,52.40
2023-12-22T12:28:37.785Z,51.44
2023-12-22T12:31:06.714Z,51.70
2023-12-22T12:33:34.678Z,51.29
2023-12-22T12:36:05.597Z,50.96
2023-12-22T12:38:45.439Z,50.66
2023-12-22T12:41:13.907Z,51.17
2023-12-22T12:43:43.656Z,51.25
2023-12-22T12:46:11.761Z,51.17
2023-12-22T12:48:40.084Z,50.77
2023-12-22T12:51:08.297Z,51.30
2023-12-22T12:53:36.221Z,51.34
2023-12-22T12:56:06.649Z,51.84
2023-12-22T12:58:34.635Z,51.32
2023-12-22T13:01:09.868Z,51.39
2023-12-22T13:03:55.630Z,50.67
2023-12-22T13:06:23.576Z,51.31
2023-12-22T13:08:51.932Z,51.53
2023-12-22T13:11:24.415Z,51.71
2023-12-22T13:13:52.705Z,51.53
2023-12-22T13:16:20.922Z,51.91
2023-12-22T13:18:48.956Z,51.28
2023-12-22T13:21:16.795Z,50.68
2023-12-22T13:23:44.629Z,51.80
2023-12-22T13:26:20.345Z,50.87
2023-12-22T13:28:49.649Z,51.51
2023-12-22T13:31:19.383Z,51.55
2023-12-22T13:33:47.391Z,51.47
2023-12-22T13:36:15.325Z,51.97
2023-12-22T13:38:47.965Z,51.67
2023-12-22T13:41:15.765Z,51.96
2023-12-22T13:43:45.484Z,51.17
2023-12-22T13:46:15.411Z,51.68
2023-12-22T13:48:43.380Z,51.69
2023-12-22T13:51:11.224Z,51.97
2023-12-22T13:53:48.994Z,51.90
2023-12-22T13:56:16.884Z,51.64
2023-12-22T13:58:48.040Z,52.32
2023-12-22T14:01:17.593Z,52.12
2023-12-22T14:03:45.686Z,51.87
2023-12-22T14:06:13.904Z,51.46
2023-12-22T14:08:42.740Z,51.63
2023-12-22T14:11:10.706Z,52.00
2023-12-22T14:13:41.492Z,51.54
2023-12-22T14:16:09.351Z,51.95
2023-12-22T14:18:38.638Z,51.97
2023-12-22T14:21:06.641Z,51.96
2023-12-22T14:23:34.484Z,51.99
2023-12-22T14:26:02.719Z,51.92
2023-12-22T14:28:30.758Z,52.12
2023-12-22T14:30:58.717Z,52.21
2023-12-22T14:33:27.079Z,51.92
2023-12-22T14:35:56.325Z,52.16
2023-12-22T14:38:24.320Z,52.16
2023-12-22T14:40:52.296Z,51.86
2023-12-22T14:43:20.105Z,52.30
2023-12-22T14:45:47.905Z,51.92
2023-12-22T14:48:15.921Z,52.05
2023-12-22T14:50:43.787Z,52.01
2023-12-22T14:53:13.939Z,52.24
2023-12-22T14:55:42.085Z,52.16
2023-12-22T14:58:11.328Z,51.95
2023-12-22T15:00:39.160Z,52.50
2023-12-22T15:03:07.649Z,51.67
2023-12-22T15:05:37.491Z,51.89
2023-12-22T15:08:08.406Z,52.06
2023-12-22T15:10:38.080Z,52.10
2023-12-22T15:13:06.062Z,52.15
2023-12-22T15:15:33.874Z,51.94
2023-12-22T15:18:01.731Z,51.89
2023-12-22T15:20:30.143Z,51.92
2023-12-22T15:22:58.030Z,52.14
2023-12-22T15:25:26.042Z,51.99
2023-12-22T15:27:55.284Z,50.83
2023-12-22T15:30:23.116Z,50.74
2023-12-22T15:32:51.944Z,51.49
2023-12-22T15:35:20.648Z,50.91
2023-12-22T15:37:48.619Z,51.47
2023-12-22T15:40:16.574Z,51.38
2023-12-22T15:42:44.385Z,50.83
2023-12-22T15:45:13.856Z,51.70
2023-12-22T15:47:42.424Z,51.49
2023-12-22T15:50:11.473Z,51.65
2023-12-22T15:52:39.362Z,51.75
2023-12-22T15:55:07.792Z,51.63
2023-12-22T15:57:35.617Z,51.61
2023-12-22T16:00:03.898Z,51.45
2023-12-22T16:02:34.809Z,51.58
2023-12-22T16:05:02.683Z,52.04
2023-12-22T16:07:31.895Z,51.76
2023-12-22T16:10:01.315Z,51.99
2023-12-22T16:12:29.144Z,51.82
2023-12-22T16:14:57.017Z,51.37
2023-12-22T16:17:24.830Z,51.92
2023-12-22T16:19:54.108Z,51.75
2023-12-22T16:22:21.948Z,51.37
2023-12-22T16:24:49.794Z,52.04
2023-12-22T16:27:18.364Z,51.85
2023-12-22T16:29:47.944Z,51.94
2023-12-22T16:32:16.930Z,51.64
2023-12-22T16:34:45.508Z,50.82
2023-12-22T16:37:15.198Z,51.09
2023-12-22T16:39:50.475Z,50.67
2023-12-22T16:42:19.027Z,49.94
2023-12-22T16:44:46.907Z,50.86
2023-12-22T16:47:14.739Z,51.11
2023-12-22T16:49:43.891Z,51.13
2023-12-22T16:52:11.811Z,50.70
2023-12-22T16:54:41.621Z,50.76
2023-12-22T16:57:09.904Z,50.72
2023-12-22T16:59:37.726Z,51.09
2023-12-22T17:02:20.578Z,50.61
2023-12-22T17:04:54.371Z,50.51
2023-12-22T17:07:22.528Z,50.40
2023-12-22T17:09:51.922Z,50.68
2023-12-22T17:12:19.944Z,51.41
2023-12-22T17:14:47.810Z,51.68
2023-12-22T17:17:16.118Z,50.39
2023-12-22T17:19:44.036Z,50.77
2023-12-22T17:22:11.873Z,51.01
2023-12-22T17:24:44.083Z,50.50
2023-12-22T17:27:13.927Z,51.00
2023-12-22T17:29:42.266Z,51.00
2023-12-22T17:32:11.512Z,50.70
2023-12-22T17:34:39.606Z,51.23
2023-12-22T17:37:07.441Z,50.81
2023-12-22T17:39:35.723Z,50.59
2023-12-22T17:42:03.790Z,51.26
2023-12-22T17:44:32.938Z,51.26
2023-12-22T17:47:04.357Z,50.61
2023-12-22T17:49:32.996Z,50.83
2023-12-22T17:52:01.117Z,50.96
2023-12-22T17:54:29.030Z,50.30
2023-12-22T17:56:56.831Z,50.20
2023-12-22T17:59:24.734Z,50.87
2023-12-22T18:01:55.158Z,50.85
2023-12-22T18:04:23.157Z,51.13
2023-12-22T18:06:50.943Z,50.68
2023-12-22T18:09:18.736Z,51.19
2023-12-22T18:11:47.666Z,50.61
2023-12-22T18:14:15.603Z,50.45
2023-12-22T18:16:43.919Z,50.80
2023-12-22T18:19:13.330Z,51.18
2023-12-22T18:21:41.206Z,51.10
2023-12-22T18:24:09.189Z,51.47
2023-12-22T18:26:37.190Z,51.22
2023-12-22T18:29:05.088Z,51.17
2023-12-22T18:31:32.982Z,50.43
2023-12-22T18:34:00.836Z,50.21
2023-12-22T18:36:30.037Z,50.24
2023-12-22T18:38:59.758Z,49.65
2023-12-22T18:41:27.647Z,49.95
2023-12-22T18:43:55.541Z,50.36
2023-12-22T18:46:23.335Z,50.61
2023-12-22T18:48:51.149Z,50.32
2023-12-22T18:51:24.179Z,50.37
2023-12-22T18:53:53.377Z,50.02
2023-12-22T18:56:22.383Z,50.05
2023-12-22T18:58:50.687Z,50.59
2023-12-22T19:01:26.463Z,50.56
2023-12-22T19:04:03.553Z,49.74
2023-12-22T19:06:31.483Z,50.26
2023-12-22T19:09:00.673Z,50.66
2023-12-22T19:11:28.496Z,50.75
2023-12-22T19:13:57.186Z,50.61
2023-12-22T19:16:25.060Z,50.99
2023-12-22T19:18:52.899Z,51.13
2023-12-22T19:21:20.717Z,49.65
2023-12-22T19:23:48.537Z,49.83
2023-12-22T19:26:18.385Z,51.10
2023-12-22T19:28:46.218Z,50.38
2023-12-22T19:31:14.141Z,50.19
2023-12-22T19:33:42.117Z,51.05
2023-12-22T19:36:11.474Z,50.61
2023-12-22T19:38:39.279Z,50.06
2023-12-22T19:41:07.114Z,50.66
2023-12-22T19:43:36.621Z,49.83
2023-12-22T19:46:04.589Z,50.99
2023-12-22T19:48:32.426Z,51.35
2023-12-22T19:51:00.305Z,50.75
2023-12-22T19:53:28.155Z,49.92
2023-12-22T19:55:55.986Z,49.65
2023-12-22T19:58:23.810Z,50.57
2023-12-22T20:00:53.023Z,50.59
2023-12-22T20:03:23.146Z,50.40
2023-12-22T20:05:51.074Z,50.09
2023-12-22T20:08:19.104Z,50.04
2023-12-22T20:10:47.291Z,50.19
2023-12-22T20:13:16.363Z,50.48
2023-12-22T20:15:44.416Z,50.14
2023-12-22T20:18:13.884Z,50.05
2023-12-22T20:20:42.017Z,51.29
2023-12-22T20:23:09.892Z,51.23
2023-12-22T20:25:37.869Z,51.50
2023-12-22T20:28:06.252Z,50.87
2023-12-22T20:30:34.255Z,50.36
2023-12-22T20:33:02.158Z,50.77
2023-12-22T20:35:31.385Z,50.54
2023-12-22T20:37:59.284Z,50.69
2023-12-22T20:40:27.194Z,49.98
2023-12-22T20:42:55.002Z,50.33
2023-12-22T20:45:22.874Z,51.33
2023-12-22T20:47:51.003Z,50.38
2023-12-22T20:50:19.043Z,49.45
2023-12-22T20:52:51.717Z,50.48
2023-12-22T20:55:19.906Z,50.79
2023-12-22T20:57:49.552Z,50.92
2023-12-22T21:00:18.033Z,50.90
2023-12-22T21:02:45.856Z,51.47
2023-12-22T21:05:13.982Z,51.35
2023-12-22T21:07:42.032Z,51.79
2023-12-22T21:10:12.775Z,50.98
2023-12-22T21:12:40.992Z,50.56
2023-12-22T21:15:10.713Z,51.15
2023-12-22T21:17:38.848Z,50.71
2023-12-22T21:20:07.664Z,50.64
2023-12-22T21:22:35.537Z,50.73
2023-12-22T21:25:03.431Z,50.83
2023-12-22T21:27:32.597Z,50.67
2023-12-22T21:30:00.515Z,51.02
2023-12-22T21:32:29.133Z,50.56
2023-12-22T21:34:57.095Z,50.56
2023-12-22T21:37:26.208Z,49.85
2023-12-22T21:39:54.505Z,49.96
2023-12-22T21:42:22.304Z,50.24
2023-12-22T21:44:51.937Z,50.90
2023-12-22T21:47:19.873Z,50.19
2023-12-22T21:49:47.840Z,50.87
2023-12-22T21:52:16.723Z,50.89
2023-12-22T21:54:45.821Z,50.46
2023-12-22T21:57:13.660Z,50.49
2023-12-22T21:59:43.331Z,50.79
2023-12-22T22:02:12.661Z,50.29
2023-12-22T22:04:41.500Z,50.70
2023-12-22T22:07:09.377Z,50.31
2023-12-22T22:09:37.279Z,50.41
2023-12-22T22:12:05.557Z,49.86
2023-12-22T22:14:33.414Z,50.37
2023-12-22T22:17:01.312Z,49.81
2023-12-22T22:19:30.524Z,49.89
2023-12-22T22:21:58.372Z,49.89
2023-12-22T22:24:26.350Z,50.58
2023-12-22T22:26:54.169Z,50.66
2023-12-22T22:29:22.021Z,50.63
2023-12-22T22:31:49.908Z,50.49
2023-12-22T22:34:17.741Z,50.65
2023-12-22T22:36:46.982Z,51.36
2023-12-22T22:39:15.002Z,51.67
2023-12-22T22:41:43.370Z,51.21
2023-12-22T22:44:11.275Z,50.12
2023-12-22T22:46:39.189Z,50.62
2023-12-22T22:49:07.198Z,50.78
2023-12-22T22:51:35.096Z,50.57
2023-12-22T22:54:05.687Z,50.56
2023-12-22T22:56:33.924Z,50.34
2023-12-22T22:59:01.802Z,51.26
2023-12-22T23:01:29.668Z,50.55
2023-12-22T23:04:01.185Z,49.95
2023-12-22T23:06:29.898Z,50.25
2023-12-22T23:09:00.736Z,49.66
2023-12-22T23:11:29.932Z,49.28
2023-12-22T23:13:57.822Z,49.33
2023-12-22T23:16:25.702Z,50.55
2023-12-22T23:18:54.127Z,49.99
2023-12-22T23:21:22.183Z,50.24
2023-12-22T23:23:50.016Z,50.36
2023-12-22T23:26:17.912Z,50.44
2023-12-22T23:28:47.412Z,50.08
2023-12-22T23:31:15.407Z,49.95
2023-12-22T23:33:43.258Z,50.02
2023-12-22T23:36:18.609Z,50.96
2023-12-22T23:38:52.926Z,50.04
2023-12-22T23:41:21.024Z,49.28
2023-12-22T23:43:50.274Z,50.20
2023-12-22T23:46:18.173Z,50.46
2023-12-22T23:48:46.162Z,50.71
2023-12-22T23:51:14.789Z,50.83
2023-12-22T23:53:42.646Z,50.95
2023-12-22T23:56:11.015Z,50.84
2023-12-22T23:58:38.966Z,51.13
